createdAt,value
2022-11-24T00:01:23.176Z,3.64
2022-11-24T00:03:55.899Z,3.68
2022-11-24T00:06:24.588Z,3.48
2022-11-24T00:08:52.912Z,3.61
2022-11-24T00:11:22.864Z,3.50
2022-11-24T00:13:51.429Z,3.45
2022-11-24T00:16:22.540Z,3.48
2022-11-24T00:18:52.911Z,3.40
2022-11-24T00:21:22.021Z,3.36
2022-11-24T00:23:51.125Z,3.37
2022-11-24T00:26:21.345Z,3.36
2022-11-24T00:28:51.119Z,3.37
2022-11-24T00:31:22.697Z,3.27
2022-11-24T00:33:52.425Z,3.48
2022-11-24T00:36:22.565Z,3.43
2022-11-24T00:38:55.358Z,3.54
2022-11-24T00:41:23.912Z,3.50
2022-11-24T00:43:52.445Z,3.31
2022-11-24T00:46:22.725Z,3.02
2022-11-24T00:48:51.302Z,3.17
2022-11-24T00:51:20.877Z,2.30
2022-11-24T00:53:49.388Z,3.08
2022-11-24T00:56:17.737Z,2.99
2022-11-24T00:58:46.083Z,3.01
2022-11-24T01:01:15.917Z,2.90
2022-11-24T01:03:46.882Z,2.88
2022-11-24T01:06:16.923Z,2.85
2022-11-24T01:08:45.437Z,2.75
2022-11-24T01:11:15.337Z,2.98
2022-11-24T01:13:45.183Z,3.01
2022-11-24T01:16:17.960Z,3.06
2022-11-24T01:18:48.237Z,2.96
2022-11-24T01:21:17.326Z,2.67
2022-11-24T01:23:45.613Z,2.44
2022-11-24T01:26:15.171Z,2.43
2022-11-24T01:28:46.997Z,2.47
2022-11-24T01:31:16.667Z,2.48
2022-11-24T01:33:44.907Z,2.46
2022-11-24T01:36:14.701Z,2.46
2022-11-24T01:38:42.891Z,2.62
2022-11-24T01:41:13.787Z,2.50
2022-11-24T01:43:42.491Z,2.27
2022-11-24T01:46:18.610Z,2.23
2022-11-24T01:48:50.864Z,2.30
2022-11-24T01:51:23.793Z,2.33
2022-11-24T01:53:57.787Z,2.16
2022-11-24T01:56:26.732Z,2.17
2022-11-24T01:58:59.622Z,2.32
2022-11-24T02:01:31.613Z,2.37
2022-11-24T02:04:02.488Z,2.38
2022-11-24T02:06:34.644Z,2.31
2022-11-24T02:09:08.443Z,2.26
2022-11-24T02:11:38.868Z,2.24
2022-11-24T02:14:08.537Z,2.25
2022-11-24T02:16:38.213Z,1.99
2022-11-24T02:19:16.969Z,1.97
2022-11-24T02:21:46.886Z,2.29
2022-11-24T02:24:23.920Z,2.39
2022-11-24T02:26:53.497Z,2.44
2022-11-24T02:29:22.011Z,2.49
2022-11-24T02:31:55.446Z,2.59
2022-11-24T02:34:23.637Z,2.54
2022-11-24T02:36:51.758Z,2.48
2022-11-24T02:39:20.031Z,2.35
2022-11-24T02:41:55.021Z,2.50
2022-11-24T02:44:29.160Z,2.40
2022-11-24T02:47:04.140Z,2.61
2022-11-24T02:49:32.292Z,2.63
2022-11-24T02:52:00.674Z,2.67
2022-11-24T02:54:28.957Z,2.53
2022-11-24T02:56:58.718Z,2.56
2022-11-24T02:59:26.919Z,2.86
2022-11-24T03:01:55.094Z,2.89
2022-11-24T03:04:23.261Z,2.81
2022-11-24T03:06:51.353Z,2.65
2022-11-24T03:09:19.437Z,2.72
2022-11-24T03:11:47.615Z,2.58
2022-11-24T03:14:17.095Z,2.59
2022-11-24T03:16:45.171Z,2.56
2022-11-24T03:19:13.432Z,2.44
2022-11-24T03:21:41.528Z,2.64
2022-11-24T03:24:09.642Z,2.63
2022-11-24T03:26:37.786Z,2.72
2022-11-24T03:29:05.852Z,2.70
2022-11-24T03:31:35.553Z,2.55
2022-11-24T03:34:03.773Z,2.57
2022-11-24T03:36:31.884Z,2.60
2022-11-24T03:38:59.989Z,2.65
2022-11-24T03:41:28.108Z,2.73
2022-11-24T03:43:56.247Z,2.72
2022-11-24T03:46:24.464Z,2.51
2022-11-24T03:48:54.005Z,2.74
2022-11-24T03:51:22.121Z,2.63
2022-11-24T03:53:50.217Z,2.67
2022-11-24T03:56:18.416Z,2.72
2022-11-24T03:58:46.501Z,2.67
2022-11-24T04:01:14.725Z,2.71
2022-11-24T04:03:42.873Z,1.95
2022-11-24T04:06:12.463Z,2.62
2022-11-24T04:08:40.575Z,2.75
2022-11-24T04:11:08.733Z,2.63
2022-11-24T04:13:35.884Z,2.67
2022-11-24T04:16:07.146Z,2.69
2022-11-24T04:18:35.278Z,2.75
2022-11-24T04:21:03.349Z,2.87
2022-11-24T04:23:32.823Z,1.88
2022-11-24T04:26:01.023Z,2.74
2022-11-24T04:28:29.188Z,2.75
2022-11-24T04:31:02.838Z,2.80
2022-11-24T04:33:31.088Z,2.80
2022-11-24T04:35:59.350Z,2.72
2022-11-24T04:39:23.162Z,2.47
2022-11-24T04:41:17.068Z,2.71
2022-11-24T04:43:45.212Z,2.73
2022-11-24T04:46:13.398Z,2.83
2022-11-24T04:48:41.477Z,2.88
2022-11-24T04:51:09.709Z,2.51
2022-11-24T04:53:37.823Z,2.83
2022-11-24T04:56:06.843Z,2.90
2022-11-24T04:58:36.818Z,2.83
2022-11-24T05:01:08.498Z,2.82
2022-11-24T05:03:36.952Z,2.72
2022-11-24T05:06:05.500Z,2.67
2022-11-24T05:08:33.801Z,2.67
2022-11-24T05:11:05.705Z,2.53
2022-11-24T05:13:35.234Z,2.27
2022-11-24T05:16:03.515Z,2.69
2022-11-24T05:18:31.635Z,2.56
2022-11-24T05:21:00.583Z,2.61
2022-11-24T05:23:29.065Z,2.75
2022-11-24T05:26:00.914Z,2.76
2022-11-24T05:28:29.456Z,2.75
2022-11-24T05:31:02.259Z,2.23
2022-11-24T05:33:33.478Z,2.80
2022-11-24T05:36:03.323Z,2.82
2022-11-24T05:38:31.673Z,2.62
2022-11-24T05:41:02.795Z,2.82
2022-11-24T05:43:31.276Z,2.67
2022-11-24T05:46:02.575Z,2.08
2022-11-24T05:48:30.865Z,2.61
2022-11-24T05:51:01.029Z,2.61
2022-11-24T05:53:31.385Z,2.41
2022-11-24T05:55:59.655Z,2.66
2022-11-24T05:58:27.927Z,2.80
2022-11-24T06:00:56.089Z,2.07
2022-11-24T06:03:25.788Z,2.78
2022-11-24T06:05:53.917Z,2.53
2022-11-24T06:08:25.556Z,2.55
2022-11-24T06:11:16.370Z,2.38
2022-11-24T06:13:45.630Z,2.56
2022-11-24T06:16:14.978Z,2.60
2022-11-24T06:18:44.629Z,2.70
2022-11-24T06:21:12.792Z,2.73
2022-11-24T06:23:41.063Z,2.59
2022-11-24T06:26:09.412Z,2.52
2022-11-24T06:28:37.685Z,2.44
2022-11-24T06:31:07.219Z,2.42
2022-11-24T06:33:36.163Z,2.41
2022-11-24T06:36:07.632Z,2.48
2022-11-24T06:38:36.946Z,2.55
2022-11-24T06:41:07.279Z,2.58
2022-11-24T06:43:36.760Z,2.63
2022-11-24T06:46:05.224Z,2.47
2022-11-24T06:48:33.550Z,2.73
2022-11-24T06:51:02.633Z,2.84
2022-11-24T06:53:33.526Z,2.82
2022-11-24T06:56:03.247Z,2.72
2022-11-24T06:58:31.773Z,2.83
2022-11-24T07:00:59.997Z,2.95
2022-11-24T07:03:28.369Z,2.90
2022-11-24T07:06:00.473Z,2.49
2022-11-24T07:08:29.622Z,2.42
2022-11-24T07:11:06.235Z,2.78
2022-11-24T07:13:34.478Z,2.81
2022-11-24T07:16:12.886Z,2.43
2022-11-24T07:18:41.196Z,2.81
2022-11-24T07:21:09.364Z,2.33
2022-11-24T07:23:37.887Z,2.81
2022-11-24T07:26:09.154Z,2.86
2022-11-24T07:28:38.045Z,2.92
2022-11-24T07:31:07.595Z,2.97
2022-11-24T07:33:36.197Z,3.01
2022-11-24T07:36:06.415Z,2.95
2022-11-24T07:38:35.826Z,2.10
2022-11-24T07:41:05.326Z,3.27
2022-11-24T07:43:36.543Z,3.24
2022-11-24T07:46:06.051Z,3.32
2022-11-24T07:48:34.701Z,3.38
2022-11-24T07:51:04.421Z,3.38
2022-11-24T07:53:33.607Z,3.37
2022-11-24T07:56:03.491Z,3.38
2022-11-24T07:58:33.720Z,3.41
2022-11-24T08:01:11.455Z,2.88
2022-11-24T08:03:39.793Z,3.53
2022-11-24T08:06:27.291Z,2.96
2022-11-24T08:08:57.233Z,3.34
2022-11-24T08:11:25.953Z,3.57
2022-11-24T08:13:54.171Z,3.78
2022-11-24T08:16:24.142Z,3.82
2022-11-24T08:18:53.911Z,4.10
2022-11-24T08:21:23.505Z,4.09
2022-11-24T08:23:55.708Z,4.51
2022-11-24T08:26:25.060Z,4.59
2022-11-24T08:28:56.633Z,4.71
2022-11-24T08:31:34.183Z,4.90
2022-11-24T08:34:03.580Z,4.33
2022-11-24T08:36:32.588Z,5.31
2022-11-24T08:39:01.740Z,5.34
2022-11-24T08:41:30.762Z,5.61
2022-11-24T08:43:59.255Z,5.82
2022-11-24T08:46:29.009Z,5.98
2022-11-24T08:48:57.142Z,6.07
2022-11-24T08:51:27.203Z,6.17
2022-11-24T08:53:56.999Z,5.97
2022-11-24T08:56:25.912Z,6.18
2022-11-24T08:58:54.701Z,6.37
2022-11-24T09:01:46.717Z,6.42
2022-11-24T09:04:16.615Z,6.58
2022-11-24T09:06:44.754Z,6.43
2022-11-24T09:09:13.088Z,6.76
2022-11-24T09:11:41.224Z,6.84
2022-11-24T09:14:09.350Z,6.83
2022-11-24T09:16:38.058Z,6.85
2022-11-24T09:19:08.147Z,6.96
2022-11-24T09:21:39.136Z,7.14
2022-11-24T09:24:08.580Z,7.27
2022-11-24T09:26:43.035Z,7.51
2022-11-24T09:29:15.040Z,7.58
2022-11-24T09:31:43.445Z,7.69
2022-11-24T09:34:15.608Z,7.81
2022-11-24T09:36:45.215Z,7.96
2022-11-24T09:39:13.775Z,8.13
2022-11-24T09:42:15.329Z,8.27
2022-11-24T09:45:19.973Z,8.47
2022-11-24T09:48:03.693Z,8.38
2022-11-24T09:50:35.186Z,7.95
2022-11-24T09:53:15.588Z,8.35
2022-11-24T09:55:46.307Z,8.58
2022-11-24T09:58:22.854Z,8.65
2022-11-24T10:00:54.535Z,8.69
2022-11-24T10:03:29.144Z,8.47
2022-11-24T10:05:57.599Z,8.37
2022-11-24T10:08:48.168Z,9.00
2022-11-24T10:11:19.290Z,9.04
2022-11-24T10:14:06.050Z,9.00
2022-11-24T10:16:46.554Z,8.92
2022-11-24T10:19:36.347Z,9.01
2022-11-24T10:22:19.890Z,9.10
2022-11-24T10:25:05.413Z,9.13
2022-11-24T10:27:38.774Z,9.06
2022-11-24T10:30:15.179Z,8.97
2022-11-24T10:32:47.423Z,8.85
2022-11-24T10:35:19.274Z,8.82
2022-11-24T10:37:56.378Z,8.53
2022-11-24T10:43:22.874Z,9.56
2022-11-24T10:45:52.094Z,9.22
2022-11-24T10:48:25.612Z,9.38
2022-11-24T10:50:55.589Z,9.72
2022-11-24T10:53:28.039Z,9.87
2022-11-24T10:56:03.062Z,9.89
2022-11-24T10:58:37.704Z,10.02
2022-11-24T11:01:22.969Z,10.16
2022-11-24T11:03:53.579Z,10.11
2022-11-24T11:06:23.857Z,10.40
2022-11-24T11:09:12.136Z,10.36
2022-11-24T11:11:43.048Z,10.38
2022-11-24T11:14:13.136Z,10.47
2022-11-24T11:16:43.229Z,10.59
2022-11-24T11:19:48.817Z,10.75
2022-11-24T11:22:25.363Z,10.90
2022-11-24T11:25:07.259Z,10.66
2022-11-24T11:27:37.120Z,10.93
2022-11-24T11:36:12.670Z,10.97
2022-11-24T11:38:41.986Z,11.13
2022-11-24T11:41:20.786Z,11.30
2022-11-24T11:43:58.195Z,11.12
2022-11-24T11:46:29.873Z,11.35
2022-11-24T11:48:58.077Z,11.50
2022-11-24T11:51:46.574Z,11.47
2022-11-24T11:54:21.781Z,11.74
2022-11-24T11:56:57.685Z,11.88
2022-11-24T11:59:46.132Z,12.18
2022-11-24T12:02:46.014Z,12.28
2022-11-24T12:05:26.404Z,12.48
2022-11-24T12:08:10.857Z,12.62
2022-11-24T12:10:47.566Z,12.09
2022-11-24T12:13:36.600Z,12.37
2022-11-24T12:16:15.640Z,12.60
2022-11-24T12:18:58.723Z,12.57
2022-11-24T12:21:35.045Z,12.41
2022-11-24T12:24:12.701Z,12.71
2022-11-24T12:26:47.205Z,12.98
2022-11-24T12:29:44.573Z,13.10
2022-11-24T12:32:26.409Z,13.42
2022-11-24T12:35:00.766Z,13.69
2022-11-24T12:37:49.982Z,13.97
2022-11-24T12:40:27.921Z,14.12
2022-11-24T12:43:05.459Z,14.34
2022-11-24T12:45:40.192Z,14.48
2022-11-24T12:48:20.940Z,14.43
2022-11-24T12:50:53.464Z,14.08
2022-11-24T12:53:25.620Z,13.48
2022-11-24T12:55:54.893Z,13.93
2022-11-24T12:58:31.360Z,14.05
2022-11-24T13:01:14.813Z,14.16
2022-11-24T13:04:00.096Z,13.89
2022-11-24T13:06:36.752Z,14.75
2022-11-24T13:09:10.317Z,15.98
2022-11-24T13:11:43.981Z,17.85
2022-11-24T13:14:22.007Z,18.48
2022-11-24T13:17:21.722Z,20.04
2022-11-24T13:19:41.713Z,20.09
2022-11-24T13:22:18.724Z,20.20
2022-11-24T13:24:46.934Z,20.82
2022-11-24T13:27:40.074Z,20.90
2022-11-24T13:30:50.051Z,20.51
2022-11-24T13:33:35.203Z,20.72
2022-11-24T13:36:35.041Z,21.55
2022-11-24T13:39:06.334Z,22.40
2022-11-24T13:42:01.846Z,22.84
2022-11-24T13:44:30.127Z,23.13
2022-11-24T13:47:05.129Z,23.09
2022-11-24T13:49:40.865Z,21.01
2022-11-24T13:52:46.859Z,18.74
2022-11-24T13:55:34.665Z,16.49
2022-11-24T13:58:25.804Z,14.77
2022-11-24T14:01:13.533Z,14.17
2022-11-24T14:04:07.140Z,13.31
2022-11-24T14:06:40.657Z,13.02
2022-11-24T14:09:22.918Z,12.15
2022-11-24T14:12:16.481Z,11.69
2022-11-24T14:14:46.163Z,11.63
2022-11-24T14:17:20.102Z,11.38
2022-11-24T14:19:50.506Z,10.86
2022-11-24T14:22:22.036Z,10.58
2022-11-24T14:24:56.460Z,10.38
2022-11-24T14:27:30.757Z,10.07
2022-11-24T14:30:00.634Z,10.03
2022-11-24T14:32:29.313Z,9.94
2022-11-24T14:34:57.646Z,9.84
2022-11-24T14:37:25.875Z,9.48
2022-11-24T14:39:55.469Z,9.54
2022-11-24T14:42:27.323Z,9.51
2022-11-24T14:44:58.874Z,8.87
2022-11-24T14:47:31.966Z,9.31
2022-11-24T14:50:09.963Z,9.14
2022-11-24T14:52:45.916Z,9.02
2022-11-24T14:55:28.254Z,8.83
2022-11-24T14:57:57.551Z,8.84
2022-11-24T15:00:31.084Z,8.82
2022-11-24T15:03:16.130Z,8.62
2022-11-24T15:05:58.673Z,8.51
2022-11-24T15:08:29.245Z,8.40
2022-11-24T15:11:01.501Z,8.23
2022-11-24T15:13:31.055Z,8.33
2022-11-24T15:16:03.267Z,7.26
2022-11-24T15:18:37.776Z,7.99
2022-11-24T15:21:06.074Z,7.91
2022-11-24T15:23:35.221Z,7.93
2022-11-24T15:26:31.451Z,7.77
2022-11-24T15:29:02.304Z,7.67
2022-11-24T15:31:30.506Z,7.75
2022-11-24T15:33:58.723Z,7.57
2022-11-24T15:36:26.918Z,7.50
2022-11-24T15:38:55.090Z,7.57
2022-11-24T15:41:29.069Z,7.64
2022-11-24T15:43:59.411Z,7.56
2022-11-24T15:46:28.566Z,7.36
2022-11-24T15:48:57.354Z,7.18
2022-11-24T15:51:27.287Z,7.06
2022-11-24T15:54:01.127Z,7.15
2022-11-24T15:56:33.777Z,7.04
2022-11-24T15:59:02.184Z,7.09
2022-11-24T16:01:32.466Z,7.03
2022-11-24T16:04:00.930Z,7.00
2022-11-24T16:06:29.155Z,6.95
2022-11-24T16:08:58.282Z,6.78
2022-11-24T16:11:26.726Z,6.75
2022-11-24T16:13:56.405Z,6.82
2022-11-24T16:16:25.434Z,6.85
2022-11-24T16:18:53.787Z,6.82
2022-11-24T16:21:22.143Z,6.77
2022-11-24T16:23:50.319Z,6.67
2022-11-24T16:26:18.617Z,6.81
2022-11-24T16:28:46.893Z,6.79
2022-11-24T16:31:18.060Z,6.83
2022-11-24T16:33:46.672Z,6.70
2022-11-24T16:36:15.328Z,6.79
2022-11-24T16:38:43.532Z,6.77
2022-11-24T16:41:11.772Z,6.80
2022-11-24T16:43:39.986Z,6.16
2022-11-24T16:46:25.205Z,6.69
2022-11-24T16:48:55.260Z,6.74
2022-11-24T16:51:25.584Z,6.71
2022-11-24T16:53:59.664Z,6.64
2022-11-24T16:56:28.741Z,6.63
2022-11-24T16:58:57.293Z,6.66
2022-11-24T17:01:27.252Z,6.63
2022-11-24T17:03:55.524Z,6.28
2022-11-24T17:06:23.824Z,6.51
2022-11-24T17:08:52.056Z,6.69
2022-11-24T17:11:22.264Z,6.67
2022-11-24T17:13:51.161Z,5.99
2022-11-24T17:16:21.309Z,6.61
2022-11-24T17:18:51.803Z,6.64
2022-11-24T17:21:21.693Z,6.61
2022-11-24T17:23:54.163Z,6.72
2022-11-24T17:26:22.823Z,6.68
2022-11-24T17:28:51.243Z,6.74
2022-11-24T17:31:23.158Z,6.65
2022-11-24T17:33:54.843Z,6.48
2022-11-24T17:36:23.681Z,6.63
2022-11-24T17:38:52.172Z,6.51
2022-11-24T17:41:21.311Z,6.44
2022-11-24T17:43:50.634Z,6.30
2022-11-24T17:46:19.085Z,6.51
2022-11-24T17:48:47.892Z,6.49
2022-11-24T17:51:19.818Z,6.06
2022-11-24T17:53:49.850Z,6.20
2022-11-24T17:56:20.514Z,6.09
2022-11-24T17:58:49.546Z,6.04
2022-11-24T18:01:17.835Z,6.05
2022-11-24T18:03:50.459Z,6.11
2022-11-24T18:06:25.543Z,6.17
2022-11-24T18:08:55.275Z,5.99
2022-11-24T18:11:30.604Z,5.89
2022-11-24T18:14:02.399Z,5.99
2022-11-24T18:16:32.002Z,5.98
2022-11-24T18:19:10.429Z,6.07
2022-11-24T18:21:41.993Z,5.06
2022-11-24T18:24:10.681Z,6.10
2022-11-24T18:26:38.958Z,5.95
2022-11-24T18:29:08.073Z,5.76
2022-11-24T18:31:37.241Z,5.69
2022-11-24T18:34:06.879Z,5.65
2022-11-24T18:36:35.834Z,5.63
2022-11-24T18:39:07.014Z,5.66
2022-11-24T18:41:36.086Z,5.67
2022-11-24T18:44:08.143Z,5.62
2022-11-24T18:46:37.175Z,5.65
2022-11-24T18:49:05.654Z,5.60
2022-11-24T18:51:34.034Z,5.66
2022-11-24T18:54:04.099Z,5.63
2022-11-24T18:56:33.969Z,5.60
2022-11-24T18:59:02.407Z,5.39
2022-11-24T19:01:31.321Z,5.22
2022-11-24T19:04:02.207Z,5.62
2022-11-24T19:06:32.920Z,5.55
2022-11-24T19:09:02.996Z,5.46
2022-11-24T19:11:35.626Z,5.45
2022-11-24T19:14:05.233Z,5.32
2022-11-24T19:16:33.639Z,5.48
2022-11-24T19:19:03.154Z,5.20
2022-11-24T19:21:33.535Z,5.47
2022-11-24T19:24:05.296Z,4.73
2022-11-24T19:26:36.093Z,5.35
2022-11-24T19:29:05.475Z,5.25
2022-11-24T19:31:34.511Z,5.18
2022-11-24T19:34:03.623Z,5.00
2022-11-24T19:36:32.764Z,5.07
2022-11-24T19:39:02.271Z,5.03
2022-11-24T19:41:32.366Z,4.85
2022-11-24T19:44:03.091Z,5.04
2022-11-24T19:46:31.633Z,5.01
2022-11-24T19:49:01.634Z,5.02
2022-11-24T19:51:32.759Z,4.90
2022-11-24T19:54:01.924Z,4.98
2022-11-24T19:56:31.890Z,4.97
2022-11-24T19:59:02.445Z,5.03
2022-11-24T20:01:32.648Z,5.08
2022-11-24T20:04:02.396Z,4.97
2022-11-24T20:06:33.538Z,4.71
2022-11-24T20:09:02.443Z,4.73
2022-11-24T20:11:31.079Z,4.76
2022-11-24T20:13:59.451Z,4.84
2022-11-24T20:16:30.726Z,4.63
2022-11-24T20:19:00.802Z,4.68
2022-11-24T20:21:31.340Z,4.63
2022-11-24T20:24:01.296Z,3.82
2022-11-24T20:26:31.974Z,4.36
2022-11-24T20:29:01.622Z,4.55
2022-11-24T20:31:33.977Z,4.53
2022-11-24T20:34:03.647Z,3.72
2022-11-24T20:36:33.533Z,4.44
2022-11-24T20:39:03.899Z,4.40
2022-11-24T20:41:34.334Z,4.28
2022-11-24T20:44:05.127Z,4.37
2022-11-24T20:46:36.497Z,4.35
2022-11-24T20:49:05.262Z,4.14
2022-11-24T20:51:35.218Z,4.27
2022-11-24T20:54:05.834Z,4.25
2022-11-24T20:56:36.657Z,3.22
2022-11-24T20:59:05.588Z,4.20
2022-11-24T21:01:38.352Z,4.06
2022-11-24T21:04:08.369Z,4.13
2022-11-24T21:06:37.297Z,4.00
2022-11-24T21:09:06.702Z,4.17
2022-11-24T21:11:35.278Z,4.12
2022-11-24T21:14:04.043Z,4.13
2022-11-24T21:16:35.552Z,3.43
2022-11-24T21:19:05.896Z,3.89
2022-11-24T21:21:35.749Z,3.85
2022-11-24T21:24:05.693Z,3.94
2022-11-24T21:26:36.823Z,4.00
2022-11-24T21:29:06.039Z,4.11
2022-11-24T21:31:38.557Z,4.10
2022-11-24T21:34:07.801Z,3.95
2022-11-24T21:36:37.925Z,3.83
2022-11-24T21:39:06.247Z,3.77
2022-11-24T21:41:35.161Z,3.77
2022-11-24T21:44:03.323Z,3.79
2022-11-24T21:46:40.426Z,3.79
2022-11-24T21:49:13.305Z,3.00
2022-11-24T21:51:41.454Z,3.77
2022-11-24T21:54:10.133Z,3.64
2022-11-24T21:56:38.268Z,3.72
2022-11-24T21:59:06.446Z,3.58
2022-11-24T22:01:34.640Z,3.72
2022-11-24T22:04:02.866Z,3.69
2022-11-24T22:06:33.428Z,3.67
2022-11-24T22:09:01.585Z,3.68
2022-11-24T22:11:29.796Z,3.65
2022-11-24T22:13:57.995Z,3.66
2022-11-24T22:16:26.951Z,3.61
2022-11-24T22:18:55.218Z,3.60
2022-11-24T22:21:30.074Z,3.55
2022-11-24T22:23:59.930Z,3.50
2022-11-24T22:26:29.767Z,3.45
2022-11-24T22:28:59.337Z,3.36
2022-11-24T22:31:28.976Z,3.31
2022-11-24T22:33:58.062Z,3.45
2022-11-24T22:36:28.124Z,3.39
2022-11-24T22:38:57.234Z,3.31
2022-11-24T22:41:26.906Z,3.23
2022-11-24T22:43:55.215Z,2.78
2022-11-24T22:46:25.157Z,3.17
2022-11-24T22:48:54.208Z,3.15
2022-11-24T22:51:23.703Z,3.10
2022-11-24T22:53:55.523Z,3.16
2022-11-24T22:56:24.846Z,3.23
2022-11-24T22:58:54.440Z,3.00
2022-11-24T23:01:24.868Z,2.95
2022-11-24T23:03:54.897Z,2.63
2022-11-24T23:06:24.923Z,3.03
2022-11-24T23:08:54.238Z,3.04
2022-11-24T23:11:30.729Z,3.05
2022-11-24T23:14:02.505Z,3.06
2022-11-24T23:16:31.323Z,3.07
2022-11-24T23:18:59.642Z,3.04
2022-11-24T23:21:30.041Z,3.02
2022-11-24T23:24:00.216Z,2.91
2022-11-24T23:26:31.182Z,3.07
2022-11-24T23:28:59.498Z,3.04
2022-11-24T23:31:29.767Z,3.11
2022-11-24T23:33:59.242Z,2.86
2022-11-24T23:36:28.263Z,2.77
2022-11-24T23:38:56.392Z,2.62
2022-11-24T23:41:26.266Z,2.50
2022-11-24T23:43:54.450Z,2.47
2022-11-24T23:46:24.367Z,2.51
2022-11-24T23:48:56.094Z,2.53
2022-11-24T23:51:25.980Z,2.25
2022-11-24T23:53:54.789Z,2.54
2022-11-24T23:56:24.466Z,2.59
2022-11-24T23:58:52.771Z,2.55
